Rockport, Massachusetts
Current Conditions -  °F | °C
As of 8:53 PM on Saturday 22 Nov 2014 (Local Time) from KBVY Reporting Station
Clear Clear  
Wind Chill: 32°   Ceiling: Unl
Heat Index: 39°   Visibility: 10mi
Dew Point: 16°   Wind: 10mph
Humidity: 39%   Direction: 240°WSW
Pressure: 30.06"   Gusts: 23mph
Location:  42.66°N, 70.62°W
Report Text: KBVY 230153Z AUTO 24009G20KT 10SM CLR 04/M09 A3006 RMK AO2 SLP176 T00391089
Loading
Personal Weather Stations






























Interactive Weather Map New forecast layout! Learn more

10-Day Weather Forecast

Advertisements
Track Severe Weather on mobile